sensor_id;sensor_type;location;lat;lon;timestamp;P1;durP1;ratioP1;P2;durP2;ratioP2
60014;SDS011;45867;52.480;6.056;2022-09-09T00:01:07;5.47;;;2.70;;
60014;SDS011;45867;52.480;6.056;2022-09-09T00:03:37;6.43;;;2.45;;
60014;SDS011;45867;52.480;6.056;2022-09-09T00:06:21;6.38;;;2.30;;
60014;SDS011;45867;52.480;6.056;2022-09-09T00:09:00;6.28;;;2.30;;
60014;SDS011;45867;52.480;6.056;2022-09-09T00:14:31;8.65;;;2.50;;
60014;SDS011;45867;52.480;6.056;2022-09-09T00:17:04;4.45;;;2.30;;
60014;SDS011;45867;52.480;6.056;2022-09-09T00:19:43;8.45;;;2.58;;
60014;SDS011;45867;52.480;6.056;2022-09-09T00:22:18;5.50;;;2.40;;
60014;SDS011;45867;52.480;6.056;2022-09-09T00:27:23;4.80;;;2.17;;
60014;SDS011;45867;52.480;6.056;2022-09-09T00:30:13;5.63;;;2.33;;
60014;SDS011;45867;52.480;6.056;2022-09-09T00:32:39;5.43;;;2.40;;
60014;SDS011;45867;52.480;6.056;2022-09-09T00:35:18;7.20;;;2.60;;
60014;SDS011;45867;52.480;6.056;2022-09-09T00:37:47;9.40;;;2.63;;
60014;SDS011;45867;52.480;6.056;2022-09-09T00:40:21;7.50;;;2.92;;
60014;SDS011;45867;52.480;6.056;2022-09-09T00:42:48;6.15;;;2.65;;
60014;SDS011;45867;52.480;6.056;2022-09-09T00:48:10;6.43;;;2.60;;
60014;SDS011;45867;52.480;6.056;2022-09-09T00:50:45;9.60;;;2.83;;
60014;SDS011;45867;52.480;6.056;2022-09-09T00:56:06;5.30;;;2.50;;
60014;SDS011;45867;52.480;6.056;2022-09-09T00:58:34;9.60;;;2.90;;
60014;SDS011;45867;52.480;6.056;2022-09-09T01:01:06;8.73;;;2.97;;
60014;SDS011;45867;52.480;6.056;2022-09-09T01:03:35;5.05;;;2.10;;
60014;SDS011;45867;52.480;6.056;2022-09-09T01:11:22;4.53;;;2.25;;
60014;SDS011;45867;52.480;6.056;2022-09-09T01:13:52;5.88;;;2.47;;
60014;SDS011;45867;52.480;6.056;2022-09-09T01:16:18;6.75;;;2.42;;
60014;SDS011;45867;52.480;6.056;2022-09-09T01:18:44;8.52;;;2.40;;
60014;SDS011;45867;52.480;6.056;2022-09-09T01:26:49;8.77;;;2.22;;
60014;SDS011;45867;52.480;6.056;2022-09-09T01:29:17;5.75;;;2.50;;
60014;SDS011;45867;52.480;6.056;2022-09-09T01:31:53;5.93;;;2.50;;
60014;SDS011;45867;52.480;6.056;2022-09-09T01:34:19;9.60;;;2.40;;
60014;SDS011;45867;52.480;6.056;2022-09-09T01:37:27;6.95;;;2.40;;
60014;SDS011;45867;52.480;6.056;2022-09-09T01:39:33;5.13;;;2.22;;
60014;SDS011;45867;52.480;6.056;2022-09-09T01:41:59;6.22;;;2.40;;
60014;SDS011;45867;52.480;6.056;2022-09-09T01:44:27;8.30;;;2.60;;
60014;SDS011;45867;52.480;6.056;2022-09-09T01:46:54;7.00;;;2.17;;
60014;SDS011;45867;52.480;6.056;2022-09-09T01:49:19;7.43;;;2.55;;
60014;SDS011;45867;52.480;6.056;2022-09-09T01:51:46;6.38;;;2.67;;
60014;SDS011;45867;52.480;6.056;2022-09-09T01:54:12;5.80;;;3.00;;
60014;SDS011;45867;52.480;6.056;2022-09-09T01:56:47;5.60;;;3.07;;
60014;SDS011;45867;52.480;6.056;2022-09-09T01:59:19;5.60;;;3.20;;
60014;SDS011;45867;52.480;6.056;2022-09-09T02:02:03;6.80;;;3.22;;
60014;SDS011;45867;52.480;6.056;2022-09-09T02:07:01;5.68;;;3.60;;
60014;SDS011;45867;52.480;6.056;2022-09-09T02:09:26;6.80;;;3.47;;
60014;SDS011;45867;52.480;6.056;2022-09-09T02:11:59;9.30;;;3.60;;
60014;SDS011;45867;52.480;6.056;2022-09-09T02:14:25;8.55;;;3.70;;
60014;SDS011;45867;52.480;6.056;2022-09-09T02:19:20;12.63;;;4.27;;
60014;SDS011;45867;52.480;6.056;2022-09-09T02:21:51;7.35;;;3.92;;
60014;SDS011;45867;52.480;6.056;2022-09-09T02:24:17;9.02;;;4.25;;
60014;SDS011;45867;52.480;6.056;2022-09-09T02:26:42;6.63;;;3.60;;
60014;SDS011;45867;52.480;6.056;2022-09-09T02:29:11;5.82;;;3.78;;
60014;SDS011;45867;52.480;6.056;2022-09-09T02:31:38;7.97;;;3.50;;
60014;SDS011;45867;52.480;6.056;2022-09-09T02:34:04;7.65;;;4.22;;
60014;SDS011;45867;52.480;6.056;2022-09-09T02:36:31;8.77;;;3.78;;
60014;SDS011;45867;52.480;6.056;2022-09-09T02:38:58;6.45;;;3.25;;
60014;SDS011;45867;52.480;6.056;2022-09-09T02:41:24;7.85;;;3.63;;
60014;SDS011;45867;52.480;6.056;2022-09-09T02:43:50;10.63;;;3.90;;
60014;SDS011;45867;52.480;6.056;2022-09-09T02:48:51;8.65;;;3.75;;
60014;SDS011;45867;52.480;6.056;2022-09-09T02:54:33;6.70;;;3.10;;
60014;SDS011;45867;52.480;6.056;2022-09-09T02:57:03;6.38;;;3.20;;
60014;SDS011;45867;52.480;6.056;2022-09-09T02:59:30;9.30;;;3.45;;
60014;SDS011;45867;52.480;6.056;2022-09-09T03:01:55;7.47;;;2.92;;
60014;SDS011;45867;52.480;6.056;2022-09-09T03:04:21;6.95;;;3.30;;
60014;SDS011;45867;52.480;6.056;2022-09-09T03:06:46;6.22;;;3.20;;
60014;SDS011;45867;52.480;6.056;2022-09-09T03:09:11;13.48;;;3.60;;
60014;SDS011;45867;52.480;6.056;2022-09-09T03:11:37;10.68;;;3.83;;
60014;SDS011;45867;52.480;6.056;2022-09-09T03:14:03;7.38;;;3.53;;
60014;SDS011;45867;52.480;6.056;2022-09-09T03:16:29;8.07;;;3.80;;
60014;SDS011;45867;52.480;6.056;2022-09-09T03:18:54;9.98;;;3.65;;
60014;SDS011;45867;52.480;6.056;2022-09-09T03:21:20;8.35;;;3.55;;
60014;SDS011;45867;52.480;6.056;2022-09-09T03:23:46;10.73;;;4.10;;
60014;SDS011;45867;52.480;6.056;2022-09-09T03:26:11;9.57;;;4.38;;
60014;SDS011;45867;52.480;6.056;2022-09-09T03:28:37;9.73;;;3.95;;
60014;SDS011;45867;52.480;6.056;2022-09-09T03:31:03;10.87;;;4.40;;
60014;SDS011;45867;52.480;6.056;2022-09-09T03:33:29;11.98;;;3.88;;
60014;SDS011;45867;52.480;6.056;2022-09-09T03:35:55;9.82;;;3.90;;
60014;SDS011;45867;52.480;6.056;2022-09-09T03:38:24;6.70;;;4.40;;
60014;SDS011;45867;52.480;6.056;2022-09-09T03:40:50;8.68;;;4.32;;
60014;SDS011;45867;52.480;6.056;2022-09-09T03:43:16;10.50;;;4.75;;
60014;SDS011;45867;52.480;6.056;2022-09-09T03:45:45;11.18;;;4.70;;
60014;SDS011;45867;52.480;6.056;2022-09-09T03:48:12;15.70;;;5.50;;
60014;SDS011;45867;52.480;6.056;2022-09-09T03:50:43;9.13;;;5.25;;
60014;SDS011;45867;52.480;6.056;2022-09-09T03:53:09;15.35;;;5.40;;
60014;SDS011;45867;52.480;6.056;2022-09-09T03:55:34;12.00;;;5.40;;
60014;SDS011;45867;52.480;6.056;2022-09-09T03:58:00;12.27;;;5.28;;
60014;SDS011;45867;52.480;6.056;2022-09-09T04:00:25;10.25;;;5.47;;
60014;SDS011;45867;52.480;6.056;2022-09-09T04:02:51;10.23;;;5.28;;
60014;SDS011;45867;52.480;6.056;2022-09-09T04:05:19;11.43;;;5.35;;
60014;SDS011;45867;52.480;6.056;2022-09-09T04:07:44;12.82;;;5.68;;
60014;SDS011;45867;52.480;6.056;2022-09-09T04:10:09;9.90;;;5.35;;
60014;SDS011;45867;52.480;6.056;2022-09-09T04:12:35;9.02;;;5.20;;
60014;SDS011;45867;52.480;6.056;2022-09-09T04:15:00;16.35;;;5.78;;
60014;SDS011;45867;52.480;6.056;2022-09-09T04:17:27;10.05;;;5.15;;
60014;SDS011;45867;52.480;6.056;2022-09-09T04:19:52;8.48;;;5.03;;
60014;SDS011;45867;52.480;6.056;2022-09-09T04:22:17;12.35;;;5.38;;
60014;SDS011;45867;52.480;6.056;2022-09-09T04:24:43;13.00;;;5.93;;
60014;SDS011;45867;52.480;6.056;2022-09-09T04:27:08;17.20;;;5.25;;
60014;SDS011;45867;52.480;6.056;2022-09-09T04:29:33;9.80;;;5.65;;
60014;SDS011;45867;52.480;6.056;2022-09-09T04:32:01;11.75;;;5.57;;
60014;SDS011;45867;52.480;6.056;2022-09-09T04:34:27;15.95;;;5.82;;
60014;SDS011;45867;52.480;6.056;2022-09-09T04:36:53;9.52;;;5.40;;
60014;SDS011;45867;52.480;6.056;2022-09-09T04:39:18;12.77;;;5.55;;
60014;SDS011;45867;52.480;6.056;2022-09-09T04:41:44;11.15;;;5.35;;
60014;SDS011;45867;52.480;6.056;2022-09-09T04:44:09;11.05;;;5.53;;
60014;SDS011;45867;52.480;6.056;2022-09-09T04:46:35;11.48;;;5.47;;
60014;SDS011;45867;52.480;6.056;2022-09-09T04:49:00;18.23;;;6.10;;
60014;SDS011;45867;52.480;6.056;2022-09-09T04:51:25;11.90;;;5.72;;
60014;SDS011;45867;52.480;6.056;2022-09-09T04:53:51;9.68;;;5.68;;
60014;SDS011;45867;52.480;6.056;2022-09-09T04:56:19;11.00;;;5.07;;
60014;SDS011;45867;52.480;6.056;2022-09-09T04:59:03;10.85;;;5.05;;
60014;SDS011;45867;52.480;6.056;2022-09-09T05:01:31;11.13;;;5.30;;
60014;SDS011;45867;52.480;6.056;2022-09-09T05:03:57;12.32;;;5.78;;
60014;SDS011;45867;52.480;6.056;2022-09-09T05:06:23;14.55;;;5.95;;
60014;SDS011;45867;52.480;6.056;2022-09-09T05:08:48;14.07;;;5.97;;
60014;SDS011;45867;52.480;6.056;2022-09-09T05:11:29;11.63;;;5.88;;
60014;SDS011;45867;52.480;6.056;2022-09-09T05:14:02;11.02;;;6.28;;
60014;SDS011;45867;52.480;6.056;2022-09-09T05:16:27;10.73;;;6.22;;
60014;SDS011;45867;52.480;6.056;2022-09-09T05:18:53;12.38;;;6.05;;
60014;SDS011;45867;52.480;6.056;2022-09-09T05:21:21;10.05;;;5.68;;
60014;SDS011;45867;52.480;6.056;2022-09-09T05:23:49;15.13;;;6.13;;
60014;SDS011;45867;52.480;6.056;2022-09-09T05:26:17;15.75;;;6.22;;
60014;SDS011;45867;52.480;6.056;2022-09-09T05:28:42;11.25;;;6.13;;
60014;SDS011;45867;52.480;6.056;2022-09-09T05:31:08;12.90;;;6.47;;
60014;SDS011;45867;52.480;6.056;2022-09-09T05:33:36;10.38;;;5.63;;
60014;SDS011;45867;52.480;6.056;2022-09-09T05:36:09;14.65;;;6.32;;
60014;SDS011;45867;52.480;6.056;2022-09-09T05:38:38;14.43;;;6.65;;
60014;SDS011;45867;52.480;6.056;2022-09-09T05:41:04;13.85;;;6.57;;
60014;SDS011;45867;52.480;6.056;2022-09-09T05:43:29;11.65;;;6.13;;
60014;SDS011;45867;52.480;6.056;2022-09-09T05:46:03;13.10;;;6.60;;
60014;SDS011;45867;52.480;6.056;2022-09-09T05:48:32;16.10;;;6.35;;
60014;SDS011;45867;52.480;6.056;2022-09-09T05:51:01;13.75;;;6.85;;
60014;SDS011;45867;52.480;6.056;2022-09-09T05:53:27;9.82;;;6.40;;
60014;SDS011;45867;52.480;6.056;2022-09-09T05:56:00;10.63;;;6.30;;
60014;SDS011;45867;52.480;6.056;2022-09-09T05:58:25;16.50;;;7.47;;
60014;SDS011;45867;52.480;6.056;2022-09-09T06:00:51;12.95;;;6.57;;
60014;SDS011;45867;52.480;6.056;2022-09-09T06:03:16;14.07;;;6.50;;
60014;SDS011;45867;52.480;6.056;2022-09-09T06:05:42;14.60;;;6.20;;
60014;SDS011;45867;52.480;6.056;2022-09-09T06:08:07;11.00;;;5.85;;
60014;SDS011;45867;52.480;6.056;2022-09-09T06:10:33;12.35;;;6.30;;
60014;SDS011;45867;52.480;6.056;2022-09-09T06:12:59;12.57;;;6.70;;
60014;SDS011;45867;52.480;6.056;2022-09-09T06:15:24;12.85;;;5.95;;
60014;SDS011;45867;52.480;6.056;2022-09-09T06:17:54;10.75;;;5.70;;
60014;SDS011;45867;52.480;6.056;2022-09-09T06:20:19;10.05;;;5.57;;
60014;SDS011;45867;52.480;6.056;2022-09-09T06:22:45;11.40;;;6.00;;
60014;SDS011;45867;52.480;6.056;2022-09-09T06:25:13;10.85;;;5.97;;
60014;SDS011;45867;52.480;6.056;2022-09-09T06:27:39;11.30;;;5.68;;
60014;SDS011;45867;52.480;6.056;2022-09-09T06:30:04;18.17;;;6.65;;
60014;SDS011;45867;52.480;6.056;2022-09-09T06:32:29;9.38;;;5.72;;
60014;SDS011;45867;52.480;6.056;2022-09-09T06:34:57;12.05;;;5.70;;
60014;SDS011;45867;52.480;6.056;2022-09-09T06:37:23;13.80;;;5.47;;
60014;SDS011;45867;52.480;6.056;2022-09-09T06:39:49;12.13;;;5.53;;
60014;SDS011;45867;52.480;6.056;2022-09-09T06:42:14;11.30;;;5.97;;
60014;SDS011;45867;52.480;6.056;2022-09-09T06:44:40;11.18;;;5.35;;
60014;SDS011;45867;52.480;6.056;2022-09-09T06:47:06;10.15;;;5.35;;
60014;SDS011;45867;52.480;6.056;2022-09-09T06:49:31;19.20;;;5.50;;
60014;SDS011;45867;52.480;6.056;2022-09-09T06:51:56;13.18;;;5.25;;
60014;SDS011;45867;52.480;6.056;2022-09-09T06:54:22;12.25;;;5.30;;
60014;SDS011;45867;52.480;6.056;2022-09-09T06:56:48;18.35;;;5.65;;
60014;SDS011;45867;52.480;6.056;2022-09-09T06:59:15;11.05;;;5.43;;
60014;SDS011;45867;52.480;6.056;2022-09-09T07:01:41;18.65;;;6.10;;
60014;SDS011;45867;52.480;6.056;2022-09-09T07:04:07;10.48;;;5.45;;
60014;SDS011;45867;52.480;6.056;2022-09-09T07:06:34;12.07;;;5.60;;
60014;SDS011;45867;52.480;6.056;2022-09-09T07:09:01;16.80;;;5.68;;
60014;SDS011;45867;52.480;6.056;2022-09-09T07:13:57;12.53;;;5.20;;
60014;SDS011;45867;52.480;6.056;2022-09-09T07:16:22;16.65;;;5.32;;
60014;SDS011;45867;52.480;6.056;2022-09-09T07:18:53;15.80;;;4.80;;
60014;SDS011;45867;52.480;6.056;2022-09-09T07:21:26;11.68;;;4.82;;
60014;SDS011;45867;52.480;6.056;2022-09-09T07:23:54;11.45;;;4.80;;
60014;SDS011;45867;52.480;6.056;2022-09-09T07:26:26;11.50;;;4.40;;
60014;SDS011;45867;52.480;6.056;2022-09-09T07:28:52;11.35;;;4.13;;
60014;SDS011;45867;52.480;6.056;2022-09-09T07:31:20;12.60;;;4.32;;
60014;SDS011;45867;52.480;6.056;2022-09-09T07:33:46;12.45;;;4.50;;
60014;SDS011;45867;52.480;6.056;2022-09-09T07:36:19;13.35;;;4.18;;
60014;SDS011;45867;52.480;6.056;2022-09-09T07:38:50;10.98;;;3.95;;
60014;SDS011;45867;52.480;6.056;2022-09-09T07:41:18;13.40;;;3.95;;
60014;SDS011;45867;52.480;6.056;2022-09-09T07:43:44;14.82;;;4.38;;
60014;SDS011;45867;52.480;6.056;2022-09-09T07:46:10;17.85;;;3.65;;
60014;SDS011;45867;52.480;6.056;2022-09-09T07:48:37;11.32;;;3.45;;
60014;SDS011;45867;52.480;6.056;2022-09-09T07:51:04;8.55;;;3.80;;
60014;SDS011;45867;52.480;6.056;2022-09-09T07:53:34;10.68;;;3.70;;
60014;SDS011;45867;52.480;6.056;2022-09-09T07:56:10;12.63;;;4.22;;
60014;SDS011;45867;52.480;6.056;2022-09-09T07:58:39;9.13;;;3.65;;
60014;SDS011;45867;52.480;6.056;2022-09-09T08:01:25;19.20;;;3.97;;
60014;SDS011;45867;52.480;6.056;2022-09-09T08:03:55;11.07;;;4.10;;
60014;SDS011;45867;52.480;6.056;2022-09-09T08:06:23;12.88;;;3.75;;
60014;SDS011;45867;52.480;6.056;2022-09-09T08:08:51;13.63;;;3.47;;
60014;SDS011;45867;52.480;6.056;2022-09-09T08:11:17;9.80;;;3.50;;
60014;SDS011;45867;52.480;6.056;2022-09-09T08:13:54;7.82;;;3.63;;
60014;SDS011;45867;52.480;6.056;2022-09-09T08:16:23;19.52;;;3.45;;
60014;SDS011;45867;52.480;6.056;2022-09-09T08:18:49;10.52;;;3.33;;
60014;SDS011;45867;52.480;6.056;2022-09-09T08:21:19;13.07;;;3.47;;
60014;SDS011;45867;52.480;6.056;2022-09-09T08:23:51;11.02;;;3.33;;
60014;SDS011;45867;52.480;6.056;2022-09-09T08:26:36;11.98;;;3.08;;
60014;SDS011;45867;52.480;6.056;2022-09-09T08:29:05;10.77;;;2.95;;
60014;SDS011;45867;52.480;6.056;2022-09-09T08:31:41;7.90;;;3.03;;
60014;SDS011;45867;52.480;6.056;2022-09-09T08:34:08;9.27;;;2.75;;
60014;SDS011;45867;52.480;6.056;2022-09-09T08:36:35;17.45;;;2.97;;
60014;SDS011;45867;52.480;6.056;2022-09-09T08:39:04;11.63;;;2.78;;
60014;SDS011;45867;52.480;6.056;2022-09-09T08:41:39;11.43;;;2.80;;
60014;SDS011;45867;52.480;6.056;2022-09-09T08:44:13;11.27;;;2.80;;
60014;SDS011;45867;52.480;6.056;2022-09-09T08:47:01;11.88;;;2.60;;
60014;SDS011;45867;52.480;6.056;2022-09-09T08:52:12;10.35;;;2.70;;
60014;SDS011;45867;52.480;6.056;2022-09-09T08:54:41;10.98;;;2.72;;
60014;SDS011;45867;52.480;6.056;2022-09-09T08:57:07;14.65;;;3.25;;
60014;SDS011;45867;52.480;6.056;2022-09-09T08:59:37;14.52;;;3.13;;
60014;SDS011;45867;52.480;6.056;2022-09-09T09:07:24;8.57;;;2.75;;
60014;SDS011;45867;52.480;6.056;2022-09-09T09:12:27;10.73;;;2.70;;
60014;SDS011;45867;52.480;6.056;2022-09-09T09:14:54;14.27;;;2.75;;
60014;SDS011;45867;52.480;6.056;2022-09-09T09:17:21;8.23;;;2.78;;
60014;SDS011;45867;52.480;6.056;2022-09-09T09:19:48;10.25;;;2.75;;
60014;SDS011;45867;52.480;6.056;2022-09-09T09:27:13;12.68;;;2.67;;
60014;SDS011;45867;52.480;6.056;2022-09-09T09:29:39;5.20;;;2.40;;
60014;SDS011;45867;52.480;6.056;2022-09-09T09:32:07;11.30;;;2.75;;
60014;SDS011;45867;52.480;6.056;2022-09-09T09:34:35;13.00;;;2.65;;
60014;SDS011;45867;52.480;6.056;2022-09-09T09:37:00;12.10;;;2.40;;
60014;SDS011;45867;52.480;6.056;2022-09-09T09:39:31;8.05;;;2.40;;
60014;SDS011;45867;52.480;6.056;2022-09-09T09:41:56;7.47;;;2.50;;
60014;SDS011;45867;52.480;6.056;2022-09-09T09:44:24;9.07;;;2.47;;
60014;SDS011;45867;52.480;6.056;2022-09-09T09:46:50;8.43;;;2.47;;
60014;SDS011;45867;52.480;6.056;2022-09-09T09:49:17;8.38;;;2.22;;
60014;SDS011;45867;52.480;6.056;2022-09-09T09:51:43;9.50;;;2.53;;
60014;SDS011;45867;52.480;6.056;2022-09-09T09:54:21;11.27;;;2.55;;
60014;SDS011;45867;52.480;6.056;2022-09-09T09:56:48;7.80;;;2.47;;
60014;SDS011;45867;52.480;6.056;2022-09-09T09:59:46;7.65;;;2.55;;
60014;SDS011;45867;52.480;6.056;2022-09-09T10:02:06;8.70;;;2.45;;
60014;SDS011;45867;52.480;6.056;2022-09-09T10:04:33;14.95;;;2.28;;
60014;SDS011;45867;52.480;6.056;2022-09-09T10:07:09;7.75;;;2.28;;
60014;SDS011;45867;52.480;6.056;2022-09-09T10:09:34;8.93;;;2.58;;
60014;SDS011;45867;52.480;6.056;2022-09-09T10:19:50;11.70;;;2.57;;
60014;SDS011;45867;52.480;6.056;2022-09-09T10:24:58;8.50;;;2.80;;
60014;SDS011;45867;52.480;6.056;2022-09-09T10:30:03;9.38;;;2.30;;
60014;SDS011;45867;52.480;6.056;2022-09-09T10:38:05;6.65;;;2.28;;
60014;SDS011;45867;52.480;6.056;2022-09-09T10:40:42;10.20;;;2.72;;
60014;SDS011;45867;52.480;6.056;2022-09-09T10:43:15;13.15;;;2.30;;
60014;SDS011;45867;52.480;6.056;2022-09-09T10:51:45;8.63;;;2.08;;
60014;SDS011;45867;52.480;6.056;2022-09-09T10:54:19;12.82;;;2.45;;
60014;SDS011;45867;52.480;6.056;2022-09-09T10:56:54;9.60;;;2.35;;
60014;SDS011;45867;52.480;6.056;2022-09-09T10:59:23;8.27;;;1.83;;
60014;SDS011;45867;52.480;6.056;2022-09-09T11:01:56;9.15;;;2.58;;
60014;SDS011;45867;52.480;6.056;2022-09-09T11:04:42;8.13;;;1.95;;
60014;SDS011;45867;52.480;6.056;2022-09-09T11:07:10;10.70;;;2.30;;
60014;SDS011;45867;52.480;6.056;2022-09-09T11:09:38;8.57;;;2.40;;
60014;SDS011;45867;52.480;6.056;2022-09-09T11:12:04;8.20;;;2.50;;
60014;SDS011;45867;52.480;6.056;2022-09-09T11:19:34;9.27;;;2.37;;
60014;SDS011;45867;52.480;6.056;2022-09-09T11:22:42;8.85;;;2.33;;
60014;SDS011;45867;52.480;6.056;2022-09-09T11:24:50;7.15;;;2.25;;
60014;SDS011;45867;52.480;6.056;2022-09-09T11:30:21;8.45;;;2.25;;
60014;SDS011;45867;52.480;6.056;2022-09-09T11:40:24;6.30;;;2.03;;
60014;SDS011;45867;52.480;6.056;2022-09-09T11:43:00;8.02;;;2.30;;
60014;SDS011;45867;52.480;6.056;2022-09-09T11:45:27;9.50;;;2.30;;
60014;SDS011;45867;52.480;6.056;2022-09-09T11:47:58;9.48;;;2.13;;
60014;SDS011;45867;52.480;6.056;2022-09-09T11:52:49;7.55;;;2.00;;
60014;SDS011;45867;52.480;6.056;2022-09-09T11:55:25;8.10;;;2.42;;
60014;SDS011;45867;52.480;6.056;2022-09-09T11:58:01;9.55;;;2.03;;
60014;SDS011;45867;52.480;6.056;2022-09-09T12:03:02;12.90;;;2.22;;
60014;SDS011;45867;52.480;6.056;2022-09-09T12:05:41;11.43;;;2.55;;
60014;SDS011;45867;52.480;6.056;2022-09-09T12:08:09;7.57;;;2.47;;
60014;SDS011;45867;52.480;6.056;2022-09-09T12:10:35;10.77;;;2.45;;
60014;SDS011;45867;52.480;6.056;2022-09-09T12:15:34;7.70;;;2.67;;
60014;SDS011;45867;52.480;6.056;2022-09-09T12:18:00;7.28;;;2.83;;
60014;SDS011;45867;52.480;6.056;2022-09-09T12:31:07;11.98;;;2.72;;
60014;SDS011;45867;52.480;6.056;2022-09-09T12:33:34;9.43;;;2.42;;
60014;SDS011;45867;52.480;6.056;2022-09-09T12:36:00;9.18;;;2.80;;
60014;SDS011;45867;52.480;6.056;2022-09-09T12:38:31;12.80;;;2.80;;
60014;SDS011;45867;52.480;6.056;2022-09-09T12:43:23;9.98;;;2.50;;
60014;SDS011;45867;52.480;6.056;2022-09-09T12:45:49;11.02;;;2.33;;
60014;SDS011;45867;52.480;6.056;2022-09-09T12:48:34;7.47;;;2.33;;
60014;SDS011;45867;52.480;6.056;2022-09-09T12:51:37;8.82;;;2.10;;
60014;SDS011;45867;52.480;6.056;2022-09-09T12:56:45;7.43;;;2.40;;
60014;SDS011;45867;52.480;6.056;2022-09-09T12:59:27;11.88;;;2.40;;
60014;SDS011;45867;52.480;6.056;2022-09-09T13:01:59;9.30;;;2.10;;
60014;SDS011;45867;52.480;6.056;2022-09-09T13:04:25;6.70;;;2.10;;
60014;SDS011;45867;52.480;6.056;2022-09-09T13:06:51;7.60;;;2.40;;
60014;SDS011;45867;52.480;6.056;2022-09-09T13:09:29;8.13;;;2.10;;
60014;SDS011;45867;52.480;6.056;2022-09-09T13:12:18;6.70;;;1.83;;
60014;SDS011;45867;52.480;6.056;2022-09-09T13:14:53;5.68;;;1.90;;
60014;SDS011;45867;52.480;6.056;2022-09-09T13:17:20;5.40;;;1.50;;
60014;SDS011;45867;52.480;6.056;2022-09-09T13:19:52;3.97;;;1.33;;
60014;SDS011;45867;52.480;6.056;2022-09-09T13:22:31;4.43;;;1.67;;
60014;SDS011;45867;52.480;6.056;2022-09-09T13:28:05;6.10;;;1.67;;
60014;SDS011;45867;52.480;6.056;2022-09-09T13:30:37;3.70;;;1.50;;
60014;SDS011;45867;52.480;6.056;2022-09-09T13:38:14;7.05;;;1.67;;
60014;SDS011;45867;52.480;6.056;2022-09-09T13:40:40;5.07;;;1.67;;
60014;SDS011;45867;52.480;6.056;2022-09-09T13:43:10;3.80;;;1.50;;
60014;SDS011;45867;52.480;6.056;2022-09-09T13:45:40;10.27;;;2.03;;
60014;SDS011;45867;52.480;6.056;2022-09-09T13:48:17;5.28;;;1.70;;
60014;SDS011;45867;52.480;6.056;2022-09-09T13:50:44;7.10;;;1.90;;
60014;SDS011;45867;52.480;6.056;2022-09-09T13:53:18;5.45;;;1.70;;
60014;SDS011;45867;52.480;6.056;2022-09-09T13:55:43;4.20;;;1.52;;
60014;SDS011;45867;52.480;6.056;2022-09-09T13:58:14;4.32;;;1.65;;
60014;SDS011;45867;52.480;6.056;2022-09-09T14:00:43;5.18;;;1.77;;
60014;SDS011;45867;52.480;6.056;2022-09-09T14:03:16;4.22;;;1.48;;
60014;SDS011;45867;52.480;6.056;2022-09-09T14:05:55;6.90;;;1.52;;
60014;SDS011;45867;52.480;6.056;2022-09-09T14:08:24;5.20;;;1.70;;
60014;SDS011;45867;52.480;6.056;2022-09-09T14:10:50;8.60;;;1.85;;
60014;SDS011;45867;52.480;6.056;2022-09-09T14:13:15;7.20;;;2.20;;
60014;SDS011;45867;52.480;6.056;2022-09-09T14:15:40;5.18;;;1.83;;
60014;SDS011;45867;52.480;6.056;2022-09-09T14:18:08;5.20;;;1.70;;
60014;SDS011;45867;52.480;6.056;2022-09-09T14:20:34;5.07;;;1.70;;
60014;SDS011;45867;52.480;6.056;2022-09-09T14:22:59;6.75;;;2.13;;
60014;SDS011;45867;52.480;6.056;2022-09-09T14:25:27;4.97;;;1.38;;
60014;SDS011;45867;52.480;6.056;2022-09-09T14:27:52;3.97;;;1.55;;
60014;SDS011;45867;52.480;6.056;2022-09-09T14:30:17;9.60;;;1.80;;
60014;SDS011;45867;52.480;6.056;2022-09-09T14:32:42;6.97;;;1.50;;
60014;SDS011;45867;52.480;6.056;2022-09-09T14:35:10;5.63;;;1.52;;
60014;SDS011;45867;52.480;6.056;2022-09-09T14:37:36;8.35;;;1.73;;
60014;SDS011;45867;52.480;6.056;2022-09-09T14:40:04;8.63;;;2.05;;
60014;SDS011;45867;52.480;6.056;2022-09-09T14:42:40;8.52;;;2.10;;
60014;SDS011;45867;52.480;6.056;2022-09-09T14:45:14;3.55;;;1.40;;
60014;SDS011;45867;52.480;6.056;2022-09-09T14:47:39;5.53;;;1.70;;
60014;SDS011;45867;52.480;6.056;2022-09-09T14:50:05;5.47;;;1.70;;
60014;SDS011;45867;52.480;6.056;2022-09-09T14:52:30;10.10;;;2.00;;
60014;SDS011;45867;52.480;6.056;2022-09-09T14:54:55;10.48;;;2.30;;
60014;SDS011;45867;52.480;6.056;2022-09-09T14:57:21;8.30;;;1.63;;
60014;SDS011;45867;52.480;6.056;2022-09-09T14:59:46;3.10;;;1.70;;
60014;SDS011;45867;52.480;6.056;2022-09-09T15:02:11;5.47;;;1.80;;
60014;SDS011;45867;52.480;6.056;2022-09-09T15:04:38;8.50;;;2.05;;
60014;SDS011;45867;52.480;6.056;2022-09-09T15:07:03;6.63;;;1.92;;
60014;SDS011;45867;52.480;6.056;2022-09-09T15:09:28;3.08;;;1.60;;
60014;SDS011;45867;52.480;6.056;2022-09-09T15:11:54;9.93;;;2.20;;
60014;SDS011;45867;52.480;6.056;2022-09-09T15:14:23;8.15;;;2.10;;
60014;SDS011;45867;52.480;6.056;2022-09-09T15:17:02;6.32;;;1.90;;
60014;SDS011;45867;52.480;6.056;2022-09-09T15:19:28;6.53;;;1.80;;
60014;SDS011;45867;52.480;6.056;2022-09-09T15:21:53;7.15;;;2.08;;
60014;SDS011;45867;52.480;6.056;2022-09-09T15:24:19;8.65;;;1.80;;
60014;SDS011;45867;52.480;6.056;2022-09-09T15:26:44;6.72;;;2.03;;
60014;SDS011;45867;52.480;6.056;2022-09-09T15:29:10;6.35;;;2.30;;
60014;SDS011;45867;52.480;6.056;2022-09-09T15:31:35;4.22;;;1.60;;
60014;SDS011;45867;52.480;6.056;2022-09-09T15:34:01;8.55;;;1.98;;
60014;SDS011;45867;52.480;6.056;2022-09-09T15:38:53;4.10;;;1.65;;
60014;SDS011;45867;52.480;6.056;2022-09-09T15:41:19;5.13;;;1.77;;
60014;SDS011;45867;52.480;6.056;2022-09-09T15:43:45;6.53;;;2.50;;
60014;SDS011;45867;52.480;6.056;2022-09-09T15:48:43;9.80;;;2.22;;
60014;SDS011;45867;52.480;6.056;2022-09-09T15:51:09;11.20;;;2.20;;
60014;SDS011;45867;52.480;6.056;2022-09-09T15:53:35;7.38;;;2.03;;
60014;SDS011;45867;52.480;6.056;2022-09-09T15:56:02;10.57;;;2.20;;
60014;SDS011;45867;52.480;6.056;2022-09-09T15:58:36;7.55;;;2.00;;
60014;SDS011;45867;52.480;6.056;2022-09-09T16:01:05;5.38;;;2.00;;
60014;SDS011;45867;52.480;6.056;2022-09-09T16:03:40;4.57;;;1.88;;
60014;SDS011;45867;52.480;6.056;2022-09-09T16:06:11;7.32;;;2.03;;
60014;SDS011;45867;52.480;6.056;2022-09-09T16:08:38;9.40;;;2.25;;
60014;SDS011;45867;52.480;6.056;2022-09-09T16:11:05;5.80;;;2.00;;
60014;SDS011;45867;52.480;6.056;2022-09-09T16:13:32;6.93;;;2.20;;
60014;SDS011;45867;52.480;6.056;2022-09-09T16:15:58;6.78;;;2.13;;
60014;SDS011;45867;52.480;6.056;2022-09-09T16:18:24;4.88;;;1.85;;
60014;SDS011;45867;52.480;6.056;2022-09-09T16:20:55;5.85;;;1.70;;
60014;SDS011;45867;52.480;6.056;2022-09-09T16:23:20;13.13;;;2.10;;
60014;SDS011;45867;52.480;6.056;2022-09-09T16:25:55;6.17;;;2.10;;
60014;SDS011;45867;52.480;6.056;2022-09-09T16:28:20;8.40;;;2.33;;
60014;SDS011;45867;52.480;6.056;2022-09-09T16:30:46;7.47;;;2.08;;
60014;SDS011;45867;52.480;6.056;2022-09-09T16:33:11;5.57;;;2.03;;
60014;SDS011;45867;52.480;6.056;2022-09-09T16:35:40;5.38;;;2.20;;
60014;SDS011;45867;52.480;6.056;2022-09-09T16:38:10;5.70;;;2.10;;
60014;SDS011;45867;52.480;6.056;2022-09-09T16:40:36;8.77;;;2.35;;
60014;SDS011;45867;52.480;6.056;2022-09-09T16:43:04;5.55;;;2.60;;
60014;SDS011;45867;52.480;6.056;2022-09-09T16:45:34;9.45;;;2.70;;
60014;SDS011;45867;52.480;6.056;2022-09-09T16:48:02;18.75;;;2.95;;
60014;SDS011;45867;52.480;6.056;2022-09-09T16:50:32;7.13;;;2.63;;
60014;SDS011;45867;52.480;6.056;2022-09-09T16:52:57;6.78;;;2.70;;
60014;SDS011;45867;52.480;6.056;2022-09-09T16:55:22;7.75;;;2.50;;
60014;SDS011;45867;52.480;6.056;2022-09-09T16:57:59;10.25;;;2.85;;
60014;SDS011;45867;52.480;6.056;2022-09-09T17:00:27;7.28;;;3.20;;